Latest Weather Observations for Adelaide

IDS60901

Issued at 2:51 pm CDT Tuesday 28 March 2017 (issued every 10 minutes, with the page automatically refreshed every 10 minutes)

About weather observations | Map of Adelaide area stations | Latest observations for Adelaide area | Other Formats
Station Details ID: 023090 Name: KENT TOWN Lat: -34.92 Lon: 138.62 Height: 48.0 m
Data from the previous 72 hours. | See also: Recent months at Adelaide
Date/Time
CDT
Temp
°C
App
Temp
°C
Dew
Point
°C
Rel
Hum
%
Delta-T
°C
Wind Press
QNH
hPa
Press
MSL
hPa
Rain since
9am
mm
Dir  Spd
km/h
Gust
km/h
Spd
kts
Gust
kts
28/02:30pm 23.2 21.6 10.3 44 7.1 W 9 20 5 11 1014.9 1014.8 0.0
28/02:00pm 22.2 20.6 10.3 46 6.5 WNW 9 20 5 11 1015.2 1015.1 0.0
28/01:30pm 22.0 19.9 11.2 50 6.0 WNW 13 24 7 13 1015.6 1015.5 0.0
28/01:00pm 21.6 20.1 10.7 50 6.0 W 9 20 5 11 1016.1 1016.0 0.0
28/12:30pm 21.9 19.8 9.9 46 6.5 WNW 11 24 6 13 1016.6 1016.5 0.0
28/12:00pm 21.2 19.1 9.9 48 6.1 W 11 19 6 10 1017.0 1016.9 0.0
28/11:30am 20.3 19.5 11.6 57 4.8 W 7 13 4 7 1017.2 1017.1 0.0
28/11:00am 19.2 18.1 11.8 62 4.1 N 9 13 5 7 1017.4 1017.3 0.0
28/10:30am 17.8 16.9 11.4 66 3.5 N 7 13 4 7 1017.5 1017.4 0.0
28/10:00am 17.5 16.6 11.4 67 3.3 N 7 11 4 6 1017.4 1017.3 0.0
28/09:30am 16.9 15.6 11.1 68 3.1 N 9 13 5 7 1017.3 1017.2 0.0
28/09:00am 16.4 15.0 10.8 69 3.0 N 9 15 5 8 1017.0 1016.9 0.0
28/08:30am 15.4 14.6 11.1 75 2.3 NNE 6 9 3 5 1016.8 1016.7 0.0
28/08:00am 14.7 13.9 10.9 78 2.0 NNE 6 9 3 5 1016.6 1016.5 0.0
28/07:30am 14.0 14.4 11.4 84 1.4 CALM 0 7 0 4 1016.4 1016.3 0.0
28/07:00am 14.3 14.8 11.5 83 1.5 CALM 0 0 0 0 1016.1 1016.0 0.0
28/06:30am 14.6 14.7 11.6 82 1.6 ESE 2 6 1 3 1015.7 1015.6 0.0
28/06:00am 15.0 15.2 11.7 80 1.8 NE 2 9 1 5 1015.8 1015.7 0.0
28/05:30am 15.4 15.5 11.5 77 2.1 ESE 2 7 1 4 1015.7 1015.6 0.0
28/05:00am 15.7 15.4 11.6 76 2.2 SSW 4 9 2 5 1015.5 1015.4 0.0
28/04:30am 16.6 16.2 11.0 69 3.0 SE 4 7 2 4 1015.8 1015.7 0.0
28/04:00am 16.9 16.6 11.6 71 2.9 NW 4 9 2 5 1016.2 1016.1 0.0
28/03:30am 17.2 16.4 11.7 70 3.0 WSW 7 13 4 7 1016.5 1016.4 0.0
28/03:00am 17.3 17.4 12.6 74 2.6 WNW 4 7 2 4 1016.7 1016.6 0.0
28/02:30am 17.6 17.1 12.6 72 2.8 WNW 7 11 4 6 1016.8 1016.7 0.0
28/02:00am 17.7 16.8 12.5 71 2.9 WSW 9 15 5 8 1016.9 1016.8 0.0
28/01:30am 17.7 17.2 12.5 71 2.9 WSW 7 13 4 7 1016.9 1016.8 0.0
28/01:00am 17.9 17.0 12.5 70 3.0 WSW 9 20 5 11 1017.1 1017.0 0.0
28/12:30am 18.3 17.3 12.2 67 3.4 WSW 9 15 5 8 1017.0 1016.9 0.0
28/12:00am 18.3 16.7 11.5 64 3.7 WSW 11 15 6 8 1017.0 1016.9 0.0
 
Date/Time
CDT
Temp
°C
App
Temp
°C
Dew
Point
°C
Rel
Hum
%
Delta-T
°C
Wind Press
QNH
hPa
Press
MSL
hPa
Rain since
9am
mm
Dir  Spd
km/h
Gust
km/h
Spd
kts
Gust
kts
27/11:30pm 18.2 17.0 11.6 65 3.6 WSW 9 20 5 11 1017.0 1016.9 0.0
27/11:00pm 18.3 17.0 11.1 63 3.9 SW 9 17 5 9 1017.0 1016.9 0.0
27/10:30pm 18.4 17.1 11.2 63 3.9 SW 9 13 5 7 1016.9 1016.8 0.0
27/10:00pm 18.6 17.5 12.1 66 3.6 SW 9 15 5 8 1016.8 1016.7 0.0
27/09:30pm 18.8 17.7 12.1 65 3.7 SW 9 17 5 9 1016.7 1016.6 0.0
27/09:00pm 19.1 17.7 12.1 64 3.9 WSW 11 20 6 11 1016.5 1016.4 0.0
27/08:30pm 19.3 17.8 10.4 56 4.8 SW 9 15 5 8 1016.1 1016.0 0.0
27/08:00pm 19.6 17.8 9.6 52 5.3 SW 9 17 5 9 1015.8 1015.7 0.0
27/07:30pm 19.9 18.0 10.5 54 5.1 WSW 11 17 6 9 1015.6 1015.5 0.0
27/07:00pm 20.5 17.2 9.7 50 5.8 WSW 17 24 9 13 1015.6 1015.5 0.0
27/06:30pm 21.2 18.9 10.6 50 5.8 SSW 13 24 7 13 1015.6 1015.5 0.0
27/06:00pm 21.2 17.5 10.1 49 6.0 SW 20 32 11 17 1015.4 1015.3 0.0
27/05:30pm 22.4 20.0 10.1 45 6.7 SW 13 28 7 15 1015.1 1015.0 0.0
27/05:00pm 22.8 18.5 6.9 36 8.2 SW 19 39 10 21 1015.0 1014.9 0.0
27/04:30pm 23.1 18.5 5.4 31 8.9 SW 19 35 10 19 1014.8 1014.7 0.0
27/04:00pm 22.6 18.8 9.2 42 7.2 SW 19 32 10 17 1015.0 1014.9 0.0
27/03:30pm 22.5 18.3 8.3 40 7.5 SW 20 33 11 18 1014.8 1014.7 0.0
27/03:00pm 22.9 19.1 9.1 41 7.4 WSW 19 30 10 16 1015.0 1014.9 0.0
27/02:30pm 22.6 18.1 8.5 40 7.5 WSW 22 37 12 20 1015.3 1015.2 0.0
27/02:00pm 22.9 19.1 9.9 43 7.1 WSW 20 33 11 18 1015.5 1015.4 0.0
27/01:30pm 23.0 19.5 10.2 44 7.0 WSW 19 32 10 17 1015.5 1015.4 0.0
27/01:00pm 22.5 18.8 10.0 45 6.8 SW 20 37 11 20 1015.7 1015.6 0.0
27/12:30pm 22.0 18.6 11.2 50 6.0 WSW 20 32 11 17 1016.0 1015.9 0.0
27/12:00pm 21.7 18.8 12.3 55 5.3 WSW 19 32 10 17 1016.1 1016.0 0.0
27/11:30am 21.0 17.9 12.1 56 5.0 WSW 20 39 11 21 1016.1 1016.0 0.0
27/11:00am 19.9 16.8 12.2 61 4.3 WSW 20 35 11 19 1015.5 1015.4 0.0
27/10:30am 20.0 18.8 15.1 73 2.9 WSW 15 24 8 13 1015.2 1015.1 0.0
27/10:00am 21.4 19.1 13.0 58 4.8 WSW 17 26 9 14 1014.6 1014.5 0.0
27/09:30am 21.3 18.9 14.5 65 4.0 WSW 20 35 11 19 1014.0 1013.9 0.0
27/09:00am 21.6 19.7 14.1 62 4.4 WSW 17 32 9 17 1013.3 1013.2 0.0
27/08:30am 21.2 20.2 15.5 70 3.4 WSW 15 22 8 12 1012.9 1012.7 0.0
27/08:00am 21.0 21.4 17.3 79 2.3 W 11 22 6 12 1012.5 1012.3 0.0
27/07:30am 21.0 21.0 17.1 78 2.4 W 13 20 7 11 1011.8 1011.6 0.0
27/07:00am 21.1 20.9 17.5 80 2.2 WSW 15 24 8 13 1011.0 1010.8 0.0
27/06:30am 21.2 20.7 17.8 81 2.1 WSW 17 26 9 14 1010.5 1010.3 0.0
27/06:00am 21.3 20.9 18.1 82 2.0 WSW 17 33 9 18 1009.9 1009.7 0.0
27/05:30am 21.7 22.3 18.7 83 1.9 WSW 13 26 7 14 1009.5 1009.3 0.0
27/05:00am 21.8 21.8 19.0 84 1.8 WSW 17 30 9 16 1009.0 1008.8 0.0
27/04:30am 22.4 22.8 19.9 86 1.6 WSW 17 28 9 15 1008.0 1007.8 0.0
27/04:00am 22.8 23.1 21.6 93 0.8 SW 22 35 12 19 1007.3 1007.1 0.0
27/03:37am 26.1 28.1 25.2 95 0.6 W 24 50 13 27 1006.2 1006.0 0.0
27/03:30am 28.4 32.7 26.6 90 1.3 WNW 17 35 9 19 1005.6 1005.4 0.0
27/03:00am 32.6 38.8 28.8 80 2.8 N 15 32 8 17 1004.1 1003.9 0.0
27/02:30am 32.1 38.1 28.0 79 3.0 NE 13 24 7 13 1003.1 1002.9 0.0
27/02:00am 32.5 38.9 29.0 82 2.6 NNE 15 30 8 16 1003.5 1003.3 0.0
27/01:30am 32.4 39.7 29.2 83 2.4 NE 11 26 6 14 1003.9 1003.7 0.0
27/01:00am 32.1 38.9 28.6 82 2.6 NE 11 24 6 13 1004.2 1004.0 0.0
27/12:30am 32.1 38.8 28.9 83 2.4 ENE 13 20 7 11 1004.5 1004.3 0.0
27/12:00am 32.3 38.8 28.1 78 3.1 ENE 11 24 6 13 1005.0 1004.8 0.0
 
Date/Time
CDT
Temp
°C
App
Temp
°C
Dew
Point
°C
Rel
Hum
%
Delta-T
°C
Wind Press
QNH
hPa
Press
MSL
hPa
Rain since
9am
mm
Dir  Spd
km/h
Gust
km/h
Spd
kts
Gust
kts
26/11:30pm 32.2 38.7 28.1 79 3.0 NE 11 22 6 12 1005.6 1005.4 0.0
26/11:00pm 31.9 37.9 27.5 77 3.2 ENE 11 22 6 12 1006.0 1005.8 0.0
26/10:30pm 31.8 38.1 27.3 77 3.3 ENE 9 20 5 11 1006.4 1006.2 0.0
26/10:00pm 32.0 38.1 27.6 77 3.2 NE 11 24 6 13 1006.6 1006.4 0.0
26/09:30pm 32.2 38.0 27.2 75 3.6 ENE 11 19 6 10 1006.8 1006.6 0.0
26/09:00pm 32.1 38.0 26.8 73 3.8 ENE 9 17 5 9 1007.0 1006.8 0.0
26/08:30pm 32.0 37.7 26.4 72 4.0 NE 9 20 5 11 1007.0 1006.8 0.0
26/08:00pm 31.7 36.6 25.2 68 4.6 ENE 9 17 5 9 1007.1 1006.9 0.0
26/07:30pm 31.6 37.2 25.4 69 4.4 ENE 6 13 3 7 1007.0 1006.8 0.0
26/07:00pm 32.7 39.0 26.8 71 4.3 NE 7 11 4 6 1007.0 1006.8 0.0
26/06:30pm 33.2 39.8 27.3 71 4.3 NE 7 15 4 8 1007.1 1006.9 0.0
26/06:00pm 33.3 39.4 27.0 69 4.6 ENE 9 17 5 9 1007.1 1006.9 0.0
26/05:30pm 32.8 37.4 25.4 65 5.3 ENE 11 19 6 10 1007.4 1007.2 0.0
26/05:00pm 32.9 37.1 23.1 56 6.8 E 6 11 3 6 1007.9 1007.7 0.0
26/04:30pm 32.9 37.6 23.4 57 6.6 SSW 4 7 2 4 1008.3 1008.1 0.0
26/04:00pm 32.6 37.1 22.9 56 6.7 S 4 7 2 4 1008.6 1008.4 0.0
26/03:30pm 32.6 36.6 23.1 57 6.6 SSW 7 9 4 5 1009.1 1008.9 0.0
26/03:00pm 32.9 37.0 22.9 55 6.9 SW 6 9 3 5 1009.5 1009.3 0.0
26/02:30pm 32.3 37.1 22.9 57 6.5 N 2 6 1 3 1010.0 1009.8 0.0
26/02:00pm 31.9 36.3 22.1 56 6.7 WNW 2 9 1 5 1010.7 1010.5 0.0
26/01:30pm 32.0 35.4 21.7 54 7.0 NW 6 11 3 6 1011.2 1011.0 0.0
26/01:00pm 31.1 33.6 20.2 52 7.2 SW 7 11 4 6 1011.5 1011.3 0.0
26/12:30pm 30.8 34.5 20.8 55 6.7 WNW 2 9 1 5 1011.9 1011.7 0.0
26/12:00pm 30.2 33.2 19.3 52 7.1 W 2 7 1 4 1012.3 1012.1 0.0
26/11:30am 29.3 32.2 19.0 53 6.7 SSW 2 7 1 4 1012.7 1012.5 0.0
26/11:00am 27.3 29.7 18.0 56 5.9 SW 2 7 1 4 1013.2 1013.0 0.0
26/10:30am 26.6 28.3 18.6 61 5.1 S 7 11 4 6 1013.2 1013.0 0.0
26/10:00am 25.3 26.8 17.5 62 4.9 WSW 6 9 3 5 1013.3 1013.2 0.0
26/09:30am 23.8 26.9 18.6 72 3.3 CALM 0 0 0 0 1012.9 1012.7 0.0
26/09:00am 22.9 25.5 17.6 72 3.3 CALM 0 0 0 0 1012.6 1012.4 0.0
26/08:30am 22.0 24.7 17.8 77 2.6 CALM 0 0 0 0 1012.4 1012.2 0.0
26/08:00am 21.5 24.1 17.4 77 2.5 CALM 0 0 0 0 1012.2 1012.0 0.0
26/07:30am 21.3 22.5 17.4 78 2.4 N 7 9 4 5 1012.3 1012.1 0.0
26/07:00am 21.1 23.2 18.0 82 1.9 NNE 4 7 2 4 1012.1 1011.9 0.0
26/06:30am 20.9 23.3 18.0 83 1.8 NE 2 7 1 4 1011.8 1011.6 0.0
26/06:00am 20.9 23.2 17.8 82 1.9 NE 2 7 1 4 1012.2 1012.0 0.0
26/05:30am 21.0 23.6 17.4 80 2.2 CALM 0 6 0 3 1012.4 1012.2 0.0
26/05:00am 20.9 23.6 17.7 82 2.0 CALM 0 0 0 0 1012.4 1012.2 0.0
26/04:30am 20.7 23.5 18.0 84 1.7 CALM 0 0 0 0 1012.5 1012.3 0.0
26/04:00am 20.9 23.6 17.7 82 2.0 CALM 0 0 0 0 1012.8 1012.6 0.0
26/03:30am 20.9 23.5 17.5 81 2.1 CALM 0 0 0 0 1013.0 1012.8 0.0
26/03:00am 21.1 23.8 17.7 81 2.1 CALM 0 0 0 0 1013.4 1013.3 0.0
26/02:30am 21.2 23.7 17.3 78 2.4 CALM 0 0 0 0 1013.7 1013.6 0.0
26/02:00am 21.2 24.1 18.3 83 1.8 CALM 0 0 0 0 1013.8 1013.7 0.0
26/01:30am 21.4 24.0 17.5 78 2.4 CALM 0 0 0 0 1014.0 1013.9 0.0
26/01:00am 21.5 24.4 18.1 81 2.1 CALM 0 0 0 0 1014.4 1014.3 0.0
26/12:30am 21.7 24.6 18.2 80 2.2 CALM 0 0 0 0 1014.4 1014.3 0.0
26/12:00am 21.8 24.4 17.6 77 2.6 CALM 0 0 0 0 1014.5 1014.4 0.0
 
Date/Time
CDT
Temp
°C
App
Temp
°C
Dew
Point
°C
Rel
Hum
%
Delta-T
°C
Wind Press
QNH
hPa
Press
MSL
hPa
Rain since
9am
mm
Dir  Spd
km/h
Gust
km/h
Spd
kts
Gust
kts
25/11:30pm 21.8 24.7 18.1 79 2.3 CALM 0 0 0 0 1014.9 1014.8 0.0
25/11:00pm 21.9 24.3 17.9 78 2.5 NNW 2 7 1 4 1014.9 1014.8 0.0
25/10:30pm 22.1 24.8 17.8 76 2.7 CALM 0 0 0 0 1014.8 1014.7 0.0
25/10:00pm 22.1 25.0 18.3 79 2.4 CALM 0 0 0 0 1014.8 1014.7 0.0
25/09:30pm 22.2 25.0 17.9 76 2.7 CALM 0 0 0 0 1014.4 1014.3 0.0
25/09:00pm 22.3 25.1 18.0 76 2.7 CALM 0 0 0 0 1013.8 1013.7 0.0
25/08:30pm 22.4 24.0 17.9 75 2.8 N 6 7 3 4 1014.0 1013.9 0.0
25/08:00pm 22.7 25.6 18.1 75 2.9 CALM 0 6 0 3 1013.8 1013.7 0.0
25/07:30pm 23.0 25.4 17.9 73 3.2 SW 2 7 1 4 1013.9 1013.8 0.0
25/07:00pm 23.3 24.4 17.9 71 3.4 SW 9 13 5 7 1013.8 1013.7 0.0
25/06:30pm 23.4 24.5 18.0 71 3.4 SW 9 17 5 9 1013.9 1013.8 0.0
25/06:00pm 23.1 24.5 18.7 76 2.8 SSW 9 13 5 7 1013.2 1013.0 0.0
25/05:30pm 24.2 25.3 18.0 68 3.9 SSW 9 15 5 8 1013.5 1013.4 0.0
25/05:00pm 25.1 25.8 18.0 64 4.5 WSW 11 17 6 9 1013.7 1013.6 0.0
25/04:30pm 25.8 27.1 18.4 63 4.7 WSW 9 13 5 7 1013.3 1013.2 0.0
25/04:00pm 25.9 26.4 18.3 63 4.8 WSW 13 19 7 10 1013.2 1013.0 0.0
25/03:30pm 26.2 27.3 18.9 64 4.7 WSW 11 17 6 9 1013.3 1013.2 0.0
25/03:00pm 27.0 28.7 19.3 62 5.0 WSW 9 13 5 7 1013.2 1013.0 0.0

Latest Capital City Observations: Canberra | Sydney | Melbourne | Brisbane | Adelaide | Perth | Hobart | Darwin

Other Formats:

Comma delimited format used in spreadsheet applications
http://www.bom.gov.au/fwo/IDS60901/IDS60901.94675.axf

JavaScript Object Notation format (JSON) in row-major order
http://www.bom.gov.au/fwo/IDS60901/IDS60901.94675.json